Time;durP1;ratioP1;P1;durP2;ratioP2;P2;SDS_P1;SDS_P2;PMS_P1;PMS_P2;Temp;Humidity;BMP_temperature;BMP_pressure;BME280_temperature;BME280_humidity;BME280_pressure;Samples;Min_cycle;Max_cycle;Signal;HPM_P1;HPM_P2
2023/12/10 00:01:15;;;;;;;21.77;3.50;;;8.40;99.90;;;;;;4913678;29;20390;-66
2023/12/10 00:03:41;;;;;;;21.98;2.80;;;8.30;99.90;;;;;;4913962;29;20028;-66
2023/12/10 00:06:07;;;;;;;15.82;2.60;;;8.30;99.90;;;;;;4912910;29;20629;-65
2023/12/10 00:08:33;;;;;;;18.30;3.08;;;8.30;99.90;;;;;;4915358;29;20032;-65
2023/12/10 00:10:58;;;;;;;19.95;2.70;;;8.20;99.90;;;;;;4916578;29;20035;-65
2023/12/10 00:13:24;;;;;;;20.05;3.20;;;8.20;99.90;;;;;;4917437;29;20072;-65
2023/12/10 00:15:51;;;;;;;12.25;2.30;;;8.30;99.90;;;;;;4916768;29;20040;-66
2023/12/10 00:18:16;;;;;;;15.18;2.83;;;8.40;99.90;;;;;;4917799;29;20039;-65
2023/12/10 00:20:43;;;;;;;22.23;2.85;;;8.40;99.90;;;;;;4917382;29;20040;-65
2023/12/10 00:23:11;;;;;;;17.05;2.42;;;8.40;99.90;;;;;;4914112;29;20517;-64
2023/12/10 00:25:38;;;;;;;24.05;3.30;;;8.40;99.90;;;;;;4917372;29;20028;-65
2023/12/10 00:28:04;;;;;;;24.00;3.33;;;8.40;99.90;;;;;;4915995;29;20024;-66
2023/12/10 00:30:30;;;;;;;32.50;4.15;;;8.50;99.90;;;;;;4917245;29;20024;-66
2023/12/10 00:32:55;;;;;;;23.60;3.15;;;8.50;99.90;;;;;;4916330;29;20032;-66
2023/12/10 00:35:21;;;;;;;25.10;3.80;;;8.50;99.90;;;;;;4917336;29;20119;-66
2023/12/10 00:37:47;;;;;;;25.45;3.97;;;8.50;99.90;;;;;;4915778;29;20127;-66
2023/12/10 00:40:14;;;;;;;24.90;4.15;;;8.50;99.90;;;;;;4917453;29;20459;-66
2023/12/10 00:42:41;;;;;;;17.65;3.47;;;8.40;99.90;;;;;;4916351;29;20036;-66
2023/12/10 00:45:07;;;;;;;22.95;3.88;;;8.30;99.90;;;;;;4916320;29;20028;-66
2023/12/10 00:47:33;;;;;;;23.45;4.10;;;8.30;99.90;;;;;;4916213;29;20046;-66
2023/12/10 00:49:58;;;;;;;22.15;3.30;;;8.30;99.90;;;;;;4916365;29;20123;-66
2023/12/10 00:52:25;;;;;;;23.17;4.00;;;8.30;99.90;;;;;;4916845;29;20036;-66
2023/12/10 00:54:50;;;;;;;21.80;3.55;;;8.20;99.90;;;;;;4916452;29;20549;-66
2023/12/10 00:57:16;;;;;;;24.08;3.28;;;8.20;99.90;;;;;;4916822;29;20170;-66
2023/12/10 00:59:41;;;;;;;23.27;3.60;;;8.30;99.90;;;;;;4916781;29;20061;-65
2023/12/10 01:02:07;;;;;;;27.17;4.85;;;8.30;99.90;;;;;;4915503;29;20474;-65
2023/12/10 01:04:33;;;;;;;33.97;5.72;;;8.30;99.90;;;;;;4916509;29;20511;-65
2023/12/10 01:06:58;;;;;;;27.55;4.50;;;8.40;99.90;;;;;;4916184;29;20056;-66
2023/12/10 01:09:24;;;;;;;24.15;4.65;;;8.40;99.90;;;;;;4916872;29;20032;-66
2023/12/10 01:11:49;;;;;;;24.35;3.72;;;8.40;99.90;;;;;;4915734;29;20096;-66
2023/12/10 01:14:15;;;;;;;26.05;4.45;;;8.50;99.90;;;;;;4915856;29;20091;-66
2023/12/10 01:16:41;;;;;;;26.67;4.40;;;8.50;99.90;;;;;;4916555;29;20032;-66
2023/12/10 01:19:06;;;;;;;28.73;4.63;;;8.50;99.90;;;;;;4915698;29;20039;-66
2023/12/10 01:21:32;;;;;;;43.00;6.05;;;8.50;99.90;;;;;;4915359;29;20047;-66
2023/12/10 01:23:59;;;;;;;27.75;4.35;;;8.50;99.90;;;;;;4916197;29;20442;-66
2023/12/10 01:26:25;;;;;;;34.65;5.05;;;8.60;99.90;;;;;;4916288;29;20048;-66
2023/12/10 01:28:51;;;;;;;25.92;4.63;;;8.50;99.90;;;;;;4915784;29;20028;-66
2023/12/10 01:31:17;;;;;;;25.27;4.40;;;8.40;99.90;;;;;;4916358;29;20092;-66
2023/12/10 01:33:43;;;;;;;31.58;5.95;;;8.50;99.90;;;;;;4916639;29;20569;-66
2023/12/10 01:36:08;;;;;;;33.65;4.63;;;8.50;99.90;;;;;;4915420;29;20028;-66
2023/12/10 01:38:34;;;;;;;26.85;5.20;;;8.40;99.90;;;;;;4915887;29;20108;-66
2023/12/10 01:41:01;;;;;;;32.25;5.68;;;8.40;99.90;;;;;;4915397;29;20096;-66
2023/12/10 01:43:26;;;;;;;34.03;5.25;;;8.30;99.90;;;;;;4916342;29;20032;-66
2023/12/10 01:45:53;;;;;;;28.95;4.88;;;8.30;99.90;;;;;;4914789;29;20538;-66
2023/12/10 01:48:20;;;;;;;40.38;6.60;;;8.40;99.90;;;;;;4916701;29;20028;-66
2023/12/10 01:50:46;;;;;;;33.35;5.07;;;8.40;99.90;;;;;;4915579;29;20763;-66
2023/12/10 01:53:13;;;;;;;35.17;5.88;;;8.50;99.90;;;;;;4916047;29;20123;-66
2023/12/10 01:55:40;;;;;;;35.90;5.60;;;8.50;99.90;;;;;;4916299;29;20426;-66
2023/12/10 01:58:05;;;;;;;27.20;4.70;;;8.40;99.90;;;;;;4914798;29;20160;-66
2023/12/10 02:00:32;;;;;;;31.05;4.93;;;8.70;99.90;;;;;;4915978;29;20472;-66
2023/12/10 02:03:02;;;;;;;37.85;5.28;;;8.60;99.90;;;;;;4897850;29;20549;-66
2023/12/10 02:05:28;;;;;;;32.33;5.07;;;8.60;99.90;;;;;;4916358;29;20063;-67
2023/12/10 02:07:54;;;;;;;31.60;4.70;;;8.60;99.90;;;;;;4914526;29;20446;-66
2023/12/10 02:10:20;;;;;;;37.80;6.20;;;8.50;99.90;;;;;;4916291;29;20068;-66
2023/12/10 02:12:47;;;;;;;28.48;4.60;;;8.60;99.90;;;;;;4914861;29;20068;-66
2023/12/10 02:15:16;;;;;;;32.53;5.30;;;8.60;99.90;;;;;;4915879;29;20332;-66
2023/12/10 02:17:41;;;;;;;34.90;5.07;;;8.50;99.90;;;;;;4915523;29;20115;-65
2023/12/10 02:20:11;;;;;;;25.90;4.53;;;8.60;99.90;;;;;;4913882;29;20626;-66
2023/12/10 02:22:57;;;;;;;30.33;5.40;;;8.50;99.90;;;;;;4915226;29;20126;-65
2023/12/10 02:25:32;;;;;;;27.48;5.22;;;8.40;99.90;;;;;;4916056;29;20043;-66
2023/12/10 02:27:58;;;;;;;28.25;4.85;;;8.40;99.90;;;;;;4914092;29;20107;-66
2023/12/10 02:30:23;;;;;;;23.77;4.80;;;8.30;99.90;;;;;;4915114;29;20119;-66
2023/12/10 02:32:49;;;;;;;37.03;4.97;;;8.40;99.90;;;;;;4913748;29;20106;-66
2023/12/10 02:35:15;;;;;;;29.05;4.53;;;8.30;99.90;;;;;;4915421;29;20040;-66
2023/12/10 02:37:41;;;;;;;30.00;4.60;;;8.30;99.90;;;;;;4914822;29;20032;-66
2023/12/10 02:40:07;;;;;;;22.70;4.72;;;8.30;99.90;;;;;;4914764;29;20541;-66
2023/12/10 02:42:33;;;;;;;25.65;3.83;;;8.40;99.90;;;;;;4914949;29;20040;-66
2023/12/10 02:44:58;;;;;;;17.50;3.60;;;8.30;99.90;;;;;;4914380;29;20065;-66
2023/12/10 02:47:24;;;;;;;12.23;2.28;;;8.30;99.90;;;;;;4914620;29;20028;-66
2023/12/10 02:49:50;;;;;;;15.00;2.45;;;8.30;99.90;;;;;;4914609;29;20103;-66
2023/12/10 02:52:15;;;;;;;13.32;2.38;;;8.00;99.90;;;;;;4914869;29;20032;-66
2023/12/10 02:54:41;;;;;;;12.70;2.28;;;7.70;99.90;;;;;;4915616;29;20462;-66
2023/12/10 02:57:07;;;;;;;11.20;2.40;;;7.50;99.90;;;;;;4913971;29;20548;-66
2023/12/10 02:59:32;;;;;;;16.45;3.20;;;7.30;99.90;;;;;;4915677;29;20079;-66
2023/12/10 03:01:58;;;;;;;17.80;2.67;;;7.20;99.90;;;;;;4913811;29;20036;-65
2023/12/10 03:04:23;;;;;;;24.42;2.83;;;7.00;99.90;;;;;;4915522;29;20470;-66
2023/12/10 03:06:49;;;;;;;19.75;3.38;;;6.80;99.90;;;;;;4913647;29;20060;-66
2023/12/10 03:09:14;;;;;;;25.10;3.60;;;6.80;99.90;;;;;;4915255;29;20036;-66
2023/12/10 03:11:40;;;;;;;18.27;3.17;;;6.70;99.90;;;;;;4914869;29;20035;-65
2023/12/10 03:14:06;;;;;;;26.70;3.30;;;6.70;99.90;;;;;;4914186;29;20035;-66
2023/12/10 03:16:31;;;;;;;23.45;2.60;;;6.60;99.90;;;;;;4919119;29;20103;-65
2023/12/10 03:18:57;;;;;;;17.15;1.95;;;6.60;99.90;;;;;;4904951;29;20028;-65
2023/12/10 03:21:22;;;;;;;18.67;2.42;;;6.60;99.90;;;;;;4914576;29;20040;-65
2023/12/10 03:23:48;;;;;;;11.25;2.08;;;6.40;99.90;;;;;;4913777;29;20059;-65
2023/12/10 03:26:14;;;;;;;14.20;2.15;;;6.40;99.90;;;;;;4914567;29;20036;-65
2023/12/10 03:28:39;;;;;;;14.57;1.98;;;6.30;99.90;;;;;;4914878;29;20084;-66
2023/12/10 03:31:05;;;;;;;10.02;2.33;;;6.20;99.90;;;;;;4913590;29;20093;-65
2023/12/10 03:33:33;;;;;;;16.63;2.33;;;6.30;99.90;;;;;;4915032;29;20086;-65
2023/12/10 03:35:59;;;;;;;15.57;2.63;;;6.20;99.90;;;;;;4913433;29;20028;-66
2023/12/10 03:38:24;;;;;;;15.57;2.30;;;6.20;99.90;;;;;;4914159;29;20127;-65
2023/12/10 03:40:50;;;;;;;11.57;2.00;;;6.30;99.90;;;;;;4913692;29;20035;-65
2023/12/10 03:43:15;;;;;;;16.85;2.35;;;6.30;99.90;;;;;;4913634;29;20036;-65
2023/12/10 03:45:41;;;;;;;18.70;2.55;;;6.40;99.90;;;;;;4914458;29;20482;-66
2023/12/10 03:48:07;;;;;;;14.70;2.05;;;6.40;99.90;;;;;;4913208;29;20140;-65
2023/12/10 03:50:33;;;;;;;11.70;2.50;;;6.40;99.90;;;;;;4914515;29;20035;-65
2023/12/10 03:52:58;;;;;;;22.77;2.92;;;6.50;99.90;;;;;;4913070;29;20032;-65
2023/12/10 03:55:24;;;;;;;21.08;3.35;;;6.60;99.90;;;;;;4914320;29;20084;-65
2023/12/10 03:57:50;;;;;;;19.75;2.45;;;6.60;99.90;;;;;;4913160;29;20243;-65
2023/12/10 04:00:17;;;;;;;12.98;2.30;;;6.70;99.90;;;;;;4914689;29;20040;-65
2023/12/10 04:02:42;;;;;;;20.80;3.47;;;6.70;99.90;;;;;;4913838;29;20062;-65
2023/12/10 04:05:11;;;;;;;24.50;3.05;;;6.80;99.90;;;;;;4913708;29;20481;-66
2023/12/10 04:07:38;;;;;;;15.65;2.70;;;6.70;99.90;;;;;;4914240;29;20038;-66
2023/12/10 04:10:04;;;;;;;18.40;2.72;;;6.70;99.90;;;;;;4913836;29;20033;-66
2023/12/10 04:12:31;;;;;;;19.92;2.55;;;6.70;99.90;;;;;;4913646;29;20036;-65
2023/12/10 04:14:57;;;;;;;18.13;3.45;;;6.70;99.90;;;;;;4916196;29;20124;-65
2023/12/10 04:17:22;;;;;;;19.33;3.00;;;6.70;99.90;;;;;;4913838;29;20427;-65
2023/12/10 04:19:48;;;;;;;23.35;3.17;;;6.70;99.90;;;;;;4913095;29;20064;-65
2023/12/10 04:22:13;;;;;;;17.48;3.28;;;6.70;99.90;;;;;;4914016;29;20035;-66
2023/12/10 04:24:39;;;;;;;18.75;2.85;;;6.80;99.90;;;;;;4914157;29;20029;-65
2023/12/10 04:27:05;;;;;;;16.33;2.35;;;6.70;99.90;;;;;;4913304;29;20497;-65
2023/12/10 04:29:30;;;;;;;22.42;2.63;;;6.70;99.90;;;;;;4914557;29;20378;-66
2023/12/10 04:31:56;;;;;;;24.70;3.30;;;6.80;99.90;;;;;;4913139;29;20032;-65
2023/12/10 04:34:22;;;;;;;23.42;3.40;;;6.80;99.90;;;;;;4914137;29;20044;-65
2023/12/10 04:36:48;;;;;;;20.55;2.60;;;6.90;99.90;;;;;;4913206;29;20083;-65
2023/12/10 04:39:15;;;;;;;21.13;3.20;;;6.90;99.90;;;;;;4913787;29;20059;-65
2023/12/10 04:41:41;;;;;;;14.88;2.50;;;7.00;99.90;;;;;;4914028;29;20052;-65
2023/12/10 04:44:07;;;;;;;21.33;2.47;;;7.10;99.90;;;;;;4913140;29;20036;-66
2023/12/10 04:46:33;;;;;;;20.63;3.80;;;7.10;99.90;;;;;;4913190;29;20056;-66
2023/12/10 04:48:58;;;;;;;25.33;3.88;;;7.20;99.90;;;;;;4913167;29;20056;-65
2023/12/10 04:51:24;;;;;;;19.05;3.40;;;7.30;99.90;;;;;;4913852;29;20398;-65
2023/12/10 04:53:50;;;;;;;20.13;2.95;;;7.30;99.90;;;;;;4913046;29;20032;-66
2023/12/10 04:56:17;;;;;;;20.27;3.20;;;7.30;99.90;;;;;;4917252;29;20056;-65
2023/12/10 04:58:42;;;;;;;21.23;3.15;;;7.30;99.90;;;;;;4917462;29;20116;-65
2023/12/10 05:01:08;;;;;;;17.42;2.60;;;7.30;99.90;;;;;;4916417;29;20081;-65
2023/12/10 05:03:34;;;;;;;26.70;3.75;;;7.30;99.90;;;;;;4899701;29;20522;-65
2023/12/10 05:06:00;;;;;;;17.05;3.28;;;7.40;99.90;;;;;;4916122;29;20040;-65
2023/12/10 05:08:26;;;;;;;16.92;2.53;;;7.40;99.90;;;;;;4917190;29;20071;-65
2023/12/10 05:10:52;;;;;;;23.23;3.88;;;7.50;99.90;;;;;;4914732;29;20039;-65
2023/12/10 05:13:17;;;;;;;17.83;3.00;;;7.50;99.90;;;;;;4916962;29;20120;-65
2023/12/10 05:15:43;;;;;;;16.65;2.80;;;7.50;99.90;;;;;;4916995;29;20043;-65
2023/12/10 05:18:08;;;;;;;15.75;2.63;;;7.50;99.90;;;;;;4915528;29;20312;-65
2023/12/10 05:20:34;;;;;;;16.88;2.70;;;7.60;99.90;;;;;;4916675;29;20050;-66
2023/12/10 05:23:00;;;;;;;19.55;2.83;;;7.50;99.90;;;;;;4916061;29;20032;-65
2023/12/10 05:25:27;;;;;;;14.05;3.10;;;7.50;99.90;;;;;;4916924;29;20040;-65
2023/12/10 05:27:54;;;;;;;18.10;2.92;;;7.60;99.90;;;;;;4915923;29;20032;-65
2023/12/10 05:30:20;;;;;;;24.23;3.15;;;7.50;99.90;;;;;;4900046;29;20421;-66
2023/12/10 05:32:45;;;;;;;19.85;3.05;;;7.50;99.90;;;;;;4915556;29;20099;-65
2023/12/10 05:35:11;;;;;;;26.42;2.95;;;7.50;99.90;;;;;;4916464;29;20031;-66
2023/12/10 05:37:37;;;;;;;17.52;3.22;;;7.50;99.90;;;;;;4915618;29;20107;-65
2023/12/10 05:40:02;;;;;;;19.08;3.45;;;7.50;99.90;;;;;;4915605;29;20032;-65
2023/12/10 05:42:28;;;;;;;16.85;2.78;;;7.50;99.90;;;;;;4916351;29;20466;-65
2023/12/10 05:44:55;;;;;;;16.67;2.88;;;7.30;99.90;;;;;;4915663;29;20034;-65
2023/12/10 05:47:21;;;;;;;19.20;2.53;;;7.30;99.90;;;;;;4916097;29;20083;-65
2023/12/10 05:49:47;;;;;;;18.50;2.95;;;7.30;99.90;;;;;;4915399;29;20500;-65
2023/12/10 05:52:12;;;;;;;19.85;3.08;;;7.30;99.90;;;;;;4915533;29;20032;-65
2023/12/10 05:54:38;;;;;;;20.02;2.97;;;7.30;99.90;;;;;;4916055;29;20025;-65
2023/12/10 05:57:04;;;;;;;21.77;2.40;;;7.30;99.90;;;;;;4915317;29;20111;-65
2023/12/10 05:59:30;;;;;;;16.80;3.08;;;7.30;99.90;;;;;;4916453;29;20470;-67
2023/12/10 06:01:56;;;;;;;14.57;2.75;;;7.20;99.90;;;;;;4914536;29;20036;-66
2023/12/10 06:04:22;;;;;;;20.10;3.08;;;7.20;99.90;;;;;;4915925;29;20115;-65
2023/12/10 06:06:48;;;;;;;17.52;2.67;;;7.30;99.90;;;;;;4913959;29;20107;-65
2023/12/10 06:09:14;;;;;;;15.63;2.42;;;7.30;99.90;;;;;;4915646;29;20032;-65
2023/12/10 06:11:40;;;;;;;16.33;2.78;;;7.30;99.90;;;;;;4914987;29;20050;-65
2023/12/10 06:14:06;;;;;;;17.83;2.75;;;7.30;99.90;;;;;;4914949;29;20020;-65
2023/12/10 06:16:32;;;;;;;18.52;3.47;;;7.50;99.90;;;;;;4915214;29;20111;-65
2023/12/10 06:18:57;;;;;;;18.15;2.47;;;7.60;99.90;;;;;;4911789;29;20123;-66
2023/12/10 06:21:23;;;;;;;12.75;2.30;;;7.60;99.90;;;;;;4915158;29;20056;-65
2023/12/10 06:23:48;;;;;;;21.50;3.05;;;7.60;99.90;;;;;;4914949;29;20091;-65
2023/12/10 06:26:14;;;;;;;13.60;2.22;;;7.60;99.90;;;;;;4915157;29;20040;-65
2023/12/10 06:28:40;;;;;;;18.38;3.13;;;7.50;99.90;;;;;;4915496;29;20100;-65
2023/12/10 06:31:06;;;;;;;14.15;2.40;;;7.60;99.90;;;;;;4907990;29;20020;-65
2023/12/10 06:33:31;;;;;;;19.67;4.13;;;7.60;99.90;;;;;;4915208;29;20204;-65
2023/12/10 06:35:57;;;;;;;18.65;2.72;;;7.70;99.90;;;;;;4913196;29;20040;-65
2023/12/10 06:38:22;;;;;;;17.23;2.80;;;7.70;99.90;;;;;;4914352;29;20107;-65
2023/12/10 06:40:48;;;;;;;13.93;2.90;;;7.60;99.90;;;;;;4912949;29;20174;-65
2023/12/10 06:43:14;;;;;;;15.70;2.40;;;7.60;99.90;;;;;;4914084;29;20040;-65
2023/12/10 06:45:39;;;;;;;18.60;3.83;;;7.60;99.90;;;;;;4913089;29;20375;-65
2023/12/10 06:48:06;;;;;;;15.35;2.22;;;7.60;99.90;;;;;;4913403;29;20648;-66
2023/12/10 06:50:32;;;;;;;19.55;2.50;;;7.60;99.90;;;;;;4913681;29;20043;-65
2023/12/10 06:52:58;;;;;;;11.00;2.42;;;7.50;99.90;;;;;;4897588;29;20103;-65
2023/12/10 06:55:24;;;;;;;18.58;3.45;;;7.50;99.90;;;;;;4914149;29;20031;-65
2023/12/10 06:57:49;;;;;;;12.68;2.10;;;7.50;99.90;;;;;;4895916;29;20036;-66
2023/12/10 07:00:17;;;;;;;16.73;3.05;;;7.50;99.90;;;;;;4913368;29;20114;-65
2023/12/10 07:02:43;;;;;;;16.02;2.38;;;7.40;99.90;;;;;;4913289;29;20052;-66
2023/12/10 07:05:09;;;;;;;14.98;2.90;;;7.40;99.90;;;;;;4913682;29;20039;-65
2023/12/10 07:07:34;;;;;;;18.20;2.55;;;7.40;99.90;;;;;;4913117;29;20024;-66
2023/12/10 07:10:00;;;;;;;21.60;3.30;;;7.40;99.90;;;;;;4908430;29;20020;-67
2023/12/10 07:12:26;;;;;;;8.05;1.63;;;7.30;99.90;;;;;;4909295;29;20071;-65
2023/12/10 07:14:51;;;;;;;15.10;3.17;;;7.40;99.90;;;;;;4910112;29;20055;-65
2023/12/10 07:17:17;;;;;;;14.45;2.25;;;7.30;99.90;;;;;;4900860;29;20051;-65
2023/12/10 07:19:43;;;;;;;14.65;3.00;;;7.30;99.90;;;;;;4913403;29;20039;-65
2023/12/10 07:22:08;;;;;;;19.23;2.67;;;7.20;99.90;;;;;;4912239;29;20048;-65
2023/12/10 07:24:34;;;;;;;18.50;3.38;;;7.30;99.90;;;;;;4913601;29;20366;-64
2023/12/10 07:27:01;;;;;;;26.02;3.60;;;7.30;99.90;;;;;;4912528;29;20020;-65
2023/12/10 07:29:27;;;;;;;16.33;2.83;;;7.20;99.90;;;;;;4925382;29;20030;-65
2023/12/10 07:31:52;;;;;;;17.20;3.45;;;7.10;99.90;;;;;;4912395;29;20032;-65
2023/12/10 07:34:18;;;;;;;22.17;4.80;;;7.00;99.90;;;;;;4914016;29;20039;-64
2023/12/10 07:36:44;;;;;;;12.68;2.38;;;6.90;99.90;;;;;;4912608;29;20496;-65
2023/12/10 07:39:09;;;;;;;14.25;2.80;;;6.90;99.90;;;;;;4902842;29;20054;-65
2023/12/10 07:41:35;;;;;;;18.42;4.15;;;6.80;99.90;;;;;;4916670;29;20032;-65
2023/12/10 07:44:01;;;;;;;16.08;2.70;;;6.70;99.90;;;;;;4918768;29;20038;-64
2023/12/10 07:46:26;;;;;;;25.00;4.13;;;6.70;99.90;;;;;;4914879;29;20048;-65
2023/12/10 07:48:52;;;;;;;23.90;3.65;;;6.70;99.90;;;;;;4912456;29;20058;-65
2023/12/10 07:51:18;;;;;;;16.15;2.60;;;6.70;99.90;;;;;;4915800;29;20036;-65
2023/12/10 07:53:44;;;;;;;20.50;3.92;;;6.70;99.90;;;;;;4919495;29;20091;-65
2023/12/10 07:56:09;;;;;;;19.92;3.90;;;6.70;99.90;;;;;;4918542;29;20048;-65
2023/12/10 07:58:36;;;;;;;21.38;2.97;;;6.80;99.90;;;;;;4919027;29;20422;-65
2023/12/10 08:01:02;;;;;;;17.73;2.78;;;6.90;99.90;;;;;;4917734;29;20083;-65
2023/12/10 08:03:28;;;;;;;17.88;2.95;;;7.00;99.90;;;;;;4919872;29;20121;-66
2023/12/10 08:05:53;;;;;;;15.40;2.65;;;7.00;99.90;;;;;;4916706;29;20060;-65
2023/12/10 08:08:19;;;;;;;18.10;3.78;;;7.10;99.90;;;;;;4914608;29;20587;-65
2023/12/10 08:10:46;;;;;;;17.35;2.97;;;7.10;99.90;;;;;;4913782;29;20080;-67
2023/12/10 08:13:11;;;;;;;18.88;2.97;;;7.20;99.90;;;;;;4912780;29;20079;-64
2023/12/10 08:15:37;;;;;;;20.45;4.30;;;7.20;99.90;;;;;;4913035;29;20036;-64
2023/12/10 08:18:03;;;;;;;22.33;3.00;;;7.20;99.90;;;;;;4911389;29;20115;-65
2023/12/10 08:20:29;;;;;;;17.75;2.72;;;7.30;99.90;;;;;;4909698;29;20434;-65
2023/12/10 08:22:54;;;;;;;22.48;2.97;;;7.40;99.90;;;;;;4911389;29;20035;-65
2023/12/10 08:25:20;;;;;;;17.35;2.70;;;7.40;99.90;;;;;;4895836;29;20524;-64
2023/12/10 08:27:46;;;;;;;14.48;2.85;;;7.40;99.90;;;;;;4912595;29;20033;-66
2023/12/10 08:30:12;;;;;;;19.73;2.97;;;7.40;99.90;;;;;;4914434;29;20088;-65
2023/12/10 08:32:37;;;;;;;26.83;4.03;;;7.40;99.90;;;;;;4916699;29;20043;-65
2023/12/10 08:35:03;;;;;;;14.68;2.65;;;7.40;99.90;;;;;;4916307;29;20024;-64
2023/12/10 08:37:29;;;;;;;25.80;3.35;;;7.40;99.90;;;;;;4898432;29;20060;-64
2023/12/10 08:39:55;;;;;;;16.92;3.20;;;7.40;99.90;;;;;;4915663;29;20106;-64
2023/12/10 08:42:21;;;;;;;22.23;3.05;;;7.50;99.90;;;;;;4916031;29;20385;-65
2023/12/10 08:44:46;;;;;;;18.02;3.40;;;7.60;99.90;;;;;;4915615;29;20062;-65
2023/12/10 08:47:12;;;;;;;15.60;2.88;;;7.70;99.90;;;;;;4915647;29;20064;-65
2023/12/10 08:49:38;;;;;;;22.65;3.00;;;7.80;99.90;;;;;;4916943;29;20355;-65
2023/12/10 08:52:04;;;;;;;15.68;2.63;;;8.00;99.90;;;;;;4915340;29;20047;-65
2023/12/10 08:54:30;;;;;;;11.18;2.55;;;8.20;99.90;;;;;;4915380;29;20063;-65
2023/12/10 08:56:55;;;;;;;12.70;2.60;;;8.20;99.90;;;;;;4915110;29;20051;-64
2023/12/10 08:59:21;;;;;;;14.75;2.55;;;8.20;99.90;;;;;;4915534;29;20122;-64
2023/12/10 09:01:46;;;;;;;13.38;2.70;;;8.20;99.90;;;;;;4915451;29;20043;-66
2023/12/10 09:04:12;;;;;;;20.35;3.20;;;8.20;99.90;;;;;;4915308;29;20545;-65
2023/12/10 09:06:38;;;;;;;12.65;2.28;;;8.20;99.90;;;;;;4915516;29;20505;-65
2023/12/10 09:09:04;;;;;;;20.20;2.63;;;8.20;99.90;;;;;;4915480;29;20155;-65
2023/12/10 09:11:30;;;;;;;9.63;2.17;;;8.20;99.90;;;;;;4915496;29;20024;-65
2023/12/10 09:13:56;;;;;;;16.02;2.53;;;8.20;99.90;;;;;;4914479;29;20395;-65
2023/12/10 09:16:22;;;;;;;16.80;2.97;;;8.20;99.90;;;;;;4915716;29;20088;-65
2023/12/10 09:18:48;;;;;;;10.50;2.38;;;8.40;99.90;;;;;;4915052;29;20405;-65
2023/12/10 09:21:14;;;;;;;14.77;2.85;;;8.50;99.90;;;;;;4915473;29;20480;-65
2023/12/10 09:23:41;;;;;;;22.25;3.17;;;8.80;99.90;;;;;;4915148;29;20131;-65
2023/12/10 09:26:06;;;;;;;16.88;2.55;;;9.00;99.90;;;;;;4914638;29;20064;-64
2023/12/10 09:28:32;;;;;;;13.13;2.40;;;9.20;99.90;;;;;;4915096;29;20064;-65
2023/12/10 09:30:58;;;;;;;12.93;2.63;;;9.50;99.90;;;;;;4914929;29;20111;-65
2023/12/10 09:33:23;;;;;;;14.80;2.53;;;9.70;99.90;;;;;;4915349;29;20036;-65
2023/12/10 09:35:49;;;;;;;15.60;2.58;;;9.90;99.90;;;;;;4914850;29;20028;-66
2023/12/10 09:38:14;;;;;;;13.63;2.42;;;10.10;99.90;;;;;;4907265;29;20052;-65
2023/12/10 09:40:40;;;;;;;14.95;2.78;;;10.20;99.90;;;;;;4912126;29;20028;-66
2023/12/10 09:43:06;;;;;;;16.08;2.38;;;10.30;99.90;;;;;;4913565;29;20092;-63
2023/12/10 09:45:32;;;;;;;11.18;2.25;;;10.30;99.90;;;;;;4915348;29;20047;-64
2023/12/10 09:47:59;;;;;;;13.40;2.17;;;10.20;99.90;;;;;;4914411;29;20040;-67
2023/12/10 09:50:24;;;;;;;12.35;2.25;;;10.20;99.90;;;;;;4915810;29;20036;-65
2023/12/10 09:52:50;;;;;;;13.25;2.28;;;10.10;99.90;;;;;;4913214;29;20036;-65
2023/12/10 09:55:17;;;;;;;11.43;1.98;;;10.00;99.90;;;;;;4914870;29;20111;-66
2023/12/10 09:57:43;;;;;;;11.68;2.95;;;9.90;99.90;;;;;;4914296;29;20043;-67
2023/12/10 10:00:10;;;;;;;17.05;3.65;;;9.90;99.90;;;;;;4914334;29;20020;-66
2023/12/10 10:02:36;;;;;;;15.65;2.95;;;9.90;99.90;;;;;;4914707;29;20355;-65
2023/12/10 10:05:03;;;;;;;8.77;2.28;;;10.00;99.90;;;;;;4914644;29;20070;-65
2023/12/10 10:07:29;;;;;;;12.93;2.35;;;10.00;99.90;;;;;;4914342;29;20028;-64
2023/12/10 10:09:55;;;;;;;8.48;1.60;;;10.00;99.90;;;;;;4914054;29;20024;-67
2023/12/10 10:12:21;;;;;;;11.45;2.25;;;10.00;99.90;;;;;;4913883;29;20040;-66
2023/12/10 10:14:55;;;;;;;11.63;2.55;;;10.00;99.90;;;;;;4911271;29;20028;-70
2023/12/10 10:17:27;;;;;;;10.98;3.08;;;9.90;99.90;;;;;;4914610;29;20473;-70
2023/12/10 10:19:54;;;;;;;10.27;2.38;;;9.90;99.90;;;;;;4913809;29;20028;-67
2023/12/10 10:22:21;;;;;;;10.00;2.13;;;9.90;99.90;;;;;;4912461;29;20039;-68
2023/12/10 10:24:47;;;;;;;11.63;3.03;;;10.00;99.90;;;;;;4914115;29;20094;-67
2023/12/10 10:27:12;;;;;;;11.40;2.95;;;10.00;99.90;;;;;;4913249;29;20411;-70
2023/12/10 10:29:39;;;;;;;8.65;2.63;;;9.90;99.90;;;;;;4914594;29;20039;-69
2023/12/10 10:32:06;;;;;;;14.65;3.70;;;9.90;99.90;;;;;;4913530;29;20035;-73
2023/12/10 10:34:32;;;;;;;14.20;3.33;;;9.80;99.90;;;;;;4914175;29;20130;-72
2023/12/10 10:36:58;;;;;;;11.63;2.83;;;9.70;99.90;;;;;;4898009;29;20032;-70
2023/12/10 10:39:23;;;;;;;14.25;3.28;;;9.60;99.90;;;;;;4913640;29;20466;-70
2023/12/10 10:41:49;;;;;;;13.25;2.97;;;9.60;99.90;;;;;;4912165;29;20075;-70
2023/12/10 10:44:15;;;;;;;11.02;1.83;;;9.60;99.90;;;;;;4912548;29;20529;-70
2023/12/10 10:46:41;;;;;;;12.30;2.10;;;9.60;99.90;;;;;;4912853;29;20032;-70
2023/12/10 10:49:06;;;;;;;17.90;3.45;;;9.50;99.90;;;;;;4913631;29;20035;-71
2023/12/10 10:51:33;;;;;;;12.18;2.13;;;9.60;99.90;;;;;;4913189;29;20036;-73
2023/12/10 10:54:03;;;;;;;10.95;2.10;;;9.70;99.90;;;;;;4912435;29;20035;-70
2023/12/10 10:56:30;;;;;;;10.73;2.08;;;9.70;99.90;;;;;;4913240;29;20028;-69
2023/12/10 10:58:55;;;;;;;8.45;1.90;;;9.70;99.90;;;;;;4912778;29;20108;-69
2023/12/10 11:01:39;;;;;;;9.13;1.98;;;9.80;99.90;;;;;;4912441;29;20103;-70
2023/12/10 11:04:04;;;;;;;10.82;2.65;;;9.80;99.90;;;;;;4912848;29;20043;-69
2023/12/10 11:06:30;;;;;;;9.07;1.90;;;9.90;99.90;;;;;;4912878;29;20040;-70
2023/12/10 11:08:59;;;;;;;11.02;2.15;;;9.90;99.90;;;;;;4912945;29;20032;-71
2023/12/10 11:11:26;;;;;;;9.95;2.00;;;9.90;99.90;;;;;;4912643;29;20047;-69
2023/12/10 11:13:53;;;;;;;8.88;2.10;;;9.90;99.90;;;;;;4913095;29;20055;-68
2023/12/10 11:16:19;;;;;;;12.32;2.05;;;9.90;99.90;;;;;;4912710;29;20390;-68
2023/12/10 11:18:53;;;;;;;12.25;2.20;;;9.90;99.90;;;;;;4912926;29;20032;-72
2023/12/10 11:21:18;;;;;;;13.50;2.30;;;9.90;99.90;;;;;;4913001;29;20028;-70
2023/12/10 11:23:44;;;;;;;15.07;2.72;;;10.00;99.90;;;;;;4913375;29;20083;-71
2023/12/10 11:26:10;;;;;;;10.85;1.75;;;10.00;99.90;;;;;;4912017;29;20064;-69
2023/12/10 11:28:36;;;;;;;9.48;2.65;;;10.10;99.90;;;;;;4913167;29;20032;-65
2023/12/10 11:31:02;;;;;;;16.02;2.45;;;10.00;99.90;;;;;;4911371;29;20470;-68
2023/12/10 11:33:28;;;;;;;9.20;2.03;;;10.00;99.90;;;;;;4912694;29;20125;-67
2023/12/10 11:35:57;;;;;;;13.52;2.97;;;10.00;99.90;;;;;;4912004;29;20418;-71
2023/12/10 11:38:23;;;;;;;14.45;3.75;;;10.00;99.90;;;;;;4913373;29;20055;-64
2023/12/10 11:40:49;;;;;;;17.05;3.47;;;10.00;99.90;;;;;;4913782;29;20028;-64
2023/12/10 11:43:15;;;;;;;14.27;3.05;;;9.90;99.90;;;;;;4914105;29;20107;-65
2023/12/10 11:45:41;;;;;;;22.63;4.10;;;9.70;99.90;;;;;;4914487;29;20076;-63
2023/12/10 11:48:07;;;;;;;13.05;2.38;;;9.70;99.90;;;;;;4913426;29;20024;-65
2023/12/10 11:50:33;;;;;;;14.05;2.90;;;9.70;99.90;;;;;;4913820;29;20036;-66
2023/12/10 11:53:00;;;;;;;18.88;2.97;;;9.70;99.90;;;;;;4913327;29;20119;-63
2023/12/10 11:55:27;;;;;;;17.85;2.78;;;9.70;99.90;;;;;;4914450;29;20033;-64
2023/12/10 11:57:52;;;;;;;18.25;3.13;;;9.80;99.90;;;;;;4912822;29;20047;-65
2023/12/10 12:00:18;;;;;;;16.02;2.58;;;9.80;99.90;;;;;;4913980;29;20024;-64
2023/12/10 12:02:45;;;;;;;14.63;2.85;;;9.80;99.90;;;;;;4914146;29;20058;-65
2023/12/10 12:05:13;;;;;;;16.40;3.53;;;9.90;99.90;;;;;;4917372;29;20035;-64
2023/12/10 12:07:40;;;;;;;12.60;3.25;;;9.90;99.90;;;;;;4917532;29;20040;-65
2023/12/10 12:10:11;;;;;;;16.42;2.78;;;10.00;99.90;;;;;;4916424;29;20078;-63
2023/12/10 12:12:45;;;;;;;12.88;2.45;;;10.00;99.90;;;;;;4911959;29;20406;-64
2023/12/10 12:15:12;;;;;;;11.98;2.05;;;10.10;99.90;;;;;;4915767;29;20079;-64
2023/12/10 12:17:38;;;;;;;13.52;2.47;;;10.10;99.90;;;;;;4915386;29;20039;-64
2023/12/10 12:20:27;;;;;;;12.02;3.28;;;10.10;99.90;;;;;;4914844;29;20032;-65
2023/12/10 12:22:52;;;;;;;18.58;2.97;;;10.20;99.90;;;;;;4915336;29;20040;-65
2023/12/10 12:25:19;;;;;;;16.63;2.33;;;10.20;99.90;;;;;;4916130;29;20112;-66
2023/12/10 12:27:48;;;;;;;17.27;2.80;;;10.20;99.90;;;;;;4915443;29;20139;-65
2023/12/10 12:30:16;;;;;;;13.52;2.70;;;10.30;99.90;;;;;;4916260;29;20024;-65
2023/12/10 12:32:42;;;;;;;11.13;2.42;;;10.30;99.90;;;;;;4916019;29;20039;-64
2023/12/10 12:35:08;;;;;;;13.85;2.45;;;10.40;99.90;;;;;;4915670;29;20024;-64
2023/12/10 12:37:33;;;;;;;17.00;2.88;;;10.40;99.90;;;;;;4915369;29;20036;-66
2023/12/10 12:39:59;;;;;;;13.38;3.05;;;10.40;99.90;;;;;;4915837;29;20028;-65